Peter R. Weiss — WDF8566 — position and weather

sailwx.info

Track history (hours):
 
Tides and Currents Weather Stations Pressure Air Temp Water Temp Dewpoint Dewpoint Depression Visibility Wind Speed Wind Dir Waves Ship Positions

Peter R. Weiss

Owner: Billybey Ferry Company LLC, Weehawken, NJ. More information available from US FCC via Universal Licensing System and Coast Guard Vessel Documentation Center.

Last reported at 2017-Sep-14 23:36 UTC. Time now 2017-Sep-19 18:50 UTC.
Position N 40°42' W 073°58'.

Length 26 m.

Type: Passenger vessel. MMSI: 367496240.

Date/timePositionNaut miles runAvg speedWind from/ knotsBaromVisibWave heightAir tempDewpointWater temp
2017-Sep-14 23:36N 40°42' W 073°58'0 0.7
2017-Sep-14 23:30N 40°42' W 073°58'2 3.0
2017-Sep-14 23:00N 40°44' W 073°58'0 0.9
2017-Sep-14 22:30N 40°43' W 073°58'1 1.8
2017-Sep-14 22:00N 40°42' W 073°59'0 0.1
2017-Sep-14 19:04N 40°42' W 073°58'0 0.0
2017-Sep-14 19:00N 40°42' W 073°58'0 0.1
2017-Sep-14 18:30N 40°42' W 073°58'0 0.5
2017-Sep-14 18:01N 40°42' W 073°58'0 0.2
2017-Sep-14 17:30N 40°42' W 073°59'1 2.7
2017-Sep-14 17:00N 40°42' W 074°00'2 3.2
2017-Sep-14 16:30N 40°42' W 073°58'0 0.0
2017-Sep-14 16:00N 40°42' W 073°58'3 6.6
2017-Sep-14 15:31N 40°43' W 074°03'0 0.0
2017-Sep-13 22:49N 40°43' W 074°03'0 0.0
2017-Sep-13 22:31N 40°43' W 074°03'0 0.0
2017-Sep-13 22:01N 40°43' W 074°03'0 0.0
2017-Sep-13 21:31N 40°43' W 074°03'0 0.0
2017-Sep-13 21:01N 40°43' W 074°03'0 0.0
2017-Sep-13 20:31N 40°43' W 074°03'0 0.0
2017-Sep-13 20:01N 40°43' W 074°03'0 0.0
2017-Sep-13 19:30N 40°43' W 074°03'0 0.0
2017-Sep-13 19:01N 40°43' W 074°03'0 0.0
2017-Sep-13 18:31N 40°43' W 074°03'0 0.0
2017-Sep-13 18:01N 40°43' W 074°03'0 0.0
2017-Sep-13 17:31N 40°43' W 074°03'0 0.0
2017-Sep-13 17:01N 40°43' W 074°03'0 0.0
2017-Sep-13 16:30N 40°43' W 074°03'0 0.0
2017-Sep-13 16:00N 40°43' W 074°03'0 0.0
2017-Sep-13 15:31N 40°43' W 074°03'0 0.0
2017-Sep-13 15:00N 40°43' W 074°03'0 0.0
2017-Sep-13 14:30N 40°43' W 074°03'0 0.0
2017-Sep-13 14:01N 40°43' W 074°03'0 0.0
2017-Sep-13 13:31N 40°43' W 074°03'0 0.0
2017-Sep-13 13:01N 40°43' W 074°03'0 0.7
2017-Sep-13 12:31N 40°43' W 074°03'3 6.6
2017-Sep-13 12:01N 40°42' W 073°58'  
2017-Sep-08 13:41N 40°42' W 073°58'0 0.0
2017-Sep-08 13:30N 40°42' W 073°58'3 6.0
2017-Sep-08 13:01N 40°45' W 073°58'0 0.3
2017-Sep-08 12:31N 40°45' W 073°58'1 1.0
2017-Sep-08 12:00N 40°45' W 073°58'3 5.2
2017-Sep-08 11:30N 40°42' W 073°58'0 0.0
2017-Sep-08 11:00N 40°42' W 073°58'  
2017-Sep-05 00:09N 40°42' W 073°58'0 0.0
2017-Sep-05 00:00N 40°42' W 073°58'  
Track history (hours):
 
Tides and Currents Weather Stations Pressure Air Temp Water Temp Dewpoint Dewpoint Depression Visibility Wind Speed Wind Dir Waves Ship Positions

Peter R. Weiss

Owner: Billybey Ferry Company LLC, Weehawken, NJ. More information available from US FCC via Universal Licensing System and Coast Guard Vessel Documentation Center.

Last reported at 2017-Sep-14 23:36 UTC. Time now 2017-Sep-19 18:50 UTC.
Position N 40°42' W 073°58'.

Length 26 m.

Type: Passenger vessel. MMSI: 367496240.

Date/timePositionNaut miles runAvg speedWind from/ knotsBaromVisibWave heightAir tempDewpointWater temp
2017-Sep-14 23:36N 40°42' W 073°58'0 0.7
2017-Sep-14 23:30N 40°42' W 073°58'2 3.0
2017-Sep-14 23:00N 40°44' W 073°58'0 0.9
2017-Sep-14 22:30N 40°43' W 073°58'1 1.8
2017-Sep-14 22:00N 40°42' W 073°59'0 0.1
2017-Sep-14 19:04N 40°42' W 073°58'0 0.0
2017-Sep-14 19:00N 40°42' W 073°58'0 0.1
2017-Sep-14 18:30N 40°42' W 073°58'0 0.5
2017-Sep-14 18:01N 40°42' W 073°58'0 0.2
2017-Sep-14 17:30N 40°42' W 073°59'1 2.7
2017-Sep-14 17:00N 40°42' W 074°00'2 3.2
2017-Sep-14 16:30N 40°42' W 073°58'0 0.0
2017-Sep-14 16:00N 40°42' W 073°58'3 6.6
2017-Sep-14 15:31N 40°43' W 074°03'0 0.0
2017-Sep-13 22:49N 40°43' W 074°03'0 0.0
2017-Sep-13 22:31N 40°43' W 074°03'0 0.0
2017-Sep-13 22:01N 40°43' W 074°03'0 0.0
2017-Sep-13 21:31N 40°43' W 074°03'0 0.0
2017-Sep-13 21:01N 40°43' W 074°03'0 0.0
2017-Sep-13 20:31N 40°43' W 074°03'0 0.0
2017-Sep-13 20:01N 40°43' W 074°03'0 0.0
2017-Sep-13 19:30N 40°43' W 074°03'0 0.0
2017-Sep-13 19:01N 40°43' W 074°03'0 0.0
2017-Sep-13 18:31N 40°43' W 074°03'0 0.0
2017-Sep-13 18:01N 40°43' W 074°03'0 0.0
2017-Sep-13 17:31N 40°43' W 074°03'0 0.0
2017-Sep-13 17:01N 40°43' W 074°03'0 0.0
2017-Sep-13 16:30N 40°43' W 074°03'0 0.0
2017-Sep-13 16:00N 40°43' W 074°03'0 0.0
2017-Sep-13 15:31N 40°43' W 074°03'0 0.0
2017-Sep-13 15:00N 40°43' W 074°03'0 0.0
2017-Sep-13 14:30N 40°43' W 074°03'0 0.0
2017-Sep-13 14:01N 40°43' W 074°03'0 0.0
2017-Sep-13 13:31N 40°43' W 074°03'0 0.0
2017-Sep-13 13:01N 40°43' W 074°03'0 0.7
2017-Sep-13 12:31N 40°43' W 074°03'3 6.6
2017-Sep-13 12:01N 40°42' W 073°58'  
2017-Sep-08 13:41N 40°42' W 073°58'0 0.0
2017-Sep-08 13:30N 40°42' W 073°58'3 6.0
2017-Sep-08 13:01N 40°45' W 073°58'0 0.3
2017-Sep-08 12:31N 40°45' W 073°58'1 1.0
2017-Sep-08 12:00N 40°45' W 073°58'3 5.2
2017-Sep-08 11:30N 40°42' W 073°58'0 0.0
2017-Sep-08 11:00N 40°42' W 073°58'  
2017-Sep-05 00:09N 40°42' W 073°58'0 0.0
2017-Sep-05 00:00N 40°42' W 073°58'  

Dump ship's entire track history